Armstrong, Alabama
Current Conditions -  °F | °C
As of 5:15 AM on Sunday 23 Nov 2014 (Local Time) from KAUO Reporting Station
Overcast Overcast  
Wind Chill: 55°   Ceiling: 400
Heat Index: 55°   Visibility: 10mi
Dew Point: 52°   Wind: 13mph
Humidity: 88%   Direction: 90°E
Pressure: 29.97"   Gusts: 25mph
Location:  32.2227°N, 85.6394°W
Report Text: KAUO 231115Z AUTO 09011G22KT 10SM OVC004 13/11 A2997 RMK AO1
Loading
Personal Weather Stations






























Interactive Weather Map New forecast layout! Learn more

10-Day Weather Forecast

Advertisements
Track Severe Weather on mobile